sensor_id;sensor_type;location;lat;lon;timestamp;P1;durP1;ratioP1;P2;durP2;ratioP2
75854;SDS011;64502;59.976;30.316;2023-07-13T00:01:11;3.25;;;1.27;;
75854;SDS011;64502;59.976;30.316;2023-07-13T00:03:37;4.30;;;1.13;;
75854;SDS011;64502;59.976;30.316;2023-07-13T00:06:03;3.58;;;1.13;;
75854;SDS011;64502;59.976;30.316;2023-07-13T00:08:30;4.22;;;1.42;;
75854;SDS011;64502;59.976;30.316;2023-07-13T00:10:58;5.25;;;1.58;;
75854;SDS011;64502;59.976;30.316;2023-07-13T00:13:24;3.40;;;1.38;;
75854;SDS011;64502;59.976;30.316;2023-07-13T00:15:49;4.15;;;1.70;;
75854;SDS011;64502;59.976;30.316;2023-07-13T00:18:15;3.85;;;1.60;;
75854;SDS011;64502;59.976;30.316;2023-07-13T00:20:40;3.40;;;1.50;;
75854;SDS011;64502;59.976;30.316;2023-07-13T00:23:06;4.00;;;1.63;;
75854;SDS011;64502;59.976;30.316;2023-07-13T00:25:32;5.43;;;1.58;;
75854;SDS011;64502;59.976;30.316;2023-07-13T00:27:58;3.58;;;1.60;;
75854;SDS011;64502;59.976;30.316;2023-07-13T00:30:23;3.53;;;1.60;;
75854;SDS011;64502;59.976;30.316;2023-07-13T00:32:49;4.88;;;1.77;;
75854;SDS011;64502;59.976;30.316;2023-07-13T00:35:15;4.55;;;1.50;;
75854;SDS011;64502;59.976;30.316;2023-07-13T00:37:41;4.68;;;1.58;;
75854;SDS011;64502;59.976;30.316;2023-07-13T00:40:07;4.15;;;1.80;;
75854;SDS011;64502;59.976;30.316;2023-07-13T00:42:34;4.55;;;2.08;;
75854;SDS011;64502;59.976;30.316;2023-07-13T00:47:45;9.93;;;1.85;;
75854;SDS011;64502;59.976;30.316;2023-07-13T00:50:12;5.65;;;1.58;;
75854;SDS011;64502;59.976;30.316;2023-07-13T00:52:43;5.45;;;1.45;;
75854;SDS011;64502;59.976;30.316;2023-07-13T00:55:12;4.88;;;1.92;;
75854;SDS011;64502;59.976;30.316;2023-07-13T00:57:39;6.25;;;1.65;;
75854;SDS011;64502;59.976;30.316;2023-07-13T01:00:06;3.75;;;1.60;;
75854;SDS011;64502;59.976;30.316;2023-07-13T01:02:34;2.58;;;1.17;;
75854;SDS011;64502;59.976;30.316;2023-07-13T01:05:08;4.32;;;1.75;;
75854;SDS011;64502;59.976;30.316;2023-07-13T01:07:39;2.95;;;1.60;;
75854;SDS011;64502;59.976;30.316;2023-07-13T01:13:07;7.60;;;1.52;;
75854;SDS011;64502;59.976;30.316;2023-07-13T01:18:10;3.55;;;1.50;;
75854;SDS011;64502;59.976;30.316;2023-07-13T01:20:39;4.40;;;1.52;;
75854;SDS011;64502;59.976;30.316;2023-07-13T01:23:07;3.38;;;1.40;;
75854;SDS011;64502;59.976;30.316;2023-07-13T01:25:35;5.80;;;1.88;;
75854;SDS011;64502;59.976;30.316;2023-07-13T01:28:02;3.95;;;1.60;;
75854;SDS011;64502;59.976;30.316;2023-07-13T01:30:29;6.07;;;1.80;;
75854;SDS011;64502;59.976;30.316;2023-07-13T01:32:54;4.32;;;1.42;;
75854;SDS011;64502;59.976;30.316;2023-07-13T01:35:20;4.80;;;1.42;;
75854;SDS011;64502;59.976;30.316;2023-07-13T01:37:45;3.58;;;1.65;;
75854;SDS011;64502;59.976;30.316;2023-07-13T01:40:11;5.07;;;1.73;;
75854;SDS011;64502;59.976;30.316;2023-07-13T03:59:09;4.80;;;1.92;;
75854;SDS011;64502;59.976;30.316;2023-07-13T04:01:34;3.58;;;1.48;;
75854;SDS011;64502;59.976;30.316;2023-07-13T04:04:00;2.88;;;1.52;;
75854;SDS011;64502;59.976;30.316;2023-07-13T04:06:27;4.07;;;1.20;;
75854;SDS011;64502;59.976;30.316;2023-07-13T04:08:55;3.53;;;1.48;;
75854;SDS011;64502;59.976;30.316;2023-07-13T04:11:23;4.93;;;2.17;;
75854;SDS011;64502;59.976;30.316;2023-07-13T04:13:49;2.30;;;1.30;;
75854;SDS011;64502;59.976;30.316;2023-07-13T04:16:16;3.47;;;1.73;;
75854;SDS011;64502;59.976;30.316;2023-07-13T04:18:42;3.50;;;1.85;;
75854;SDS011;64502;59.976;30.316;2023-07-13T04:21:08;3.42;;;1.85;;
75854;SDS011;64502;59.976;30.316;2023-07-13T04:23:37;4.38;;;1.70;;
75854;SDS011;64502;59.976;30.316;2023-07-13T04:26:02;5.22;;;1.90;;
75854;SDS011;64502;59.976;30.316;2023-07-13T04:28:28;4.80;;;1.75;;
75854;SDS011;64502;59.976;30.316;2023-07-13T04:30:54;3.38;;;1.42;;
75854;SDS011;64502;59.976;30.316;2023-07-13T04:33:20;2.13;;;1.20;;
75854;SDS011;64502;59.976;30.316;2023-07-13T04:35:52;2.33;;;0.93;;
75854;SDS011;64502;59.976;30.316;2023-07-13T04:38:19;3.53;;;1.85;;
75854;SDS011;64502;59.976;30.316;2023-07-13T04:40:45;2.50;;;1.55;;
75854;SDS011;64502;59.976;30.316;2023-07-13T04:43:11;2.60;;;1.23;;
75854;SDS011;64502;59.976;30.316;2023-07-13T04:45:36;2.65;;;1.25;;
75854;SDS011;64502;59.976;30.316;2023-07-13T04:48:02;3.75;;;1.05;;
75854;SDS011;64502;59.976;30.316;2023-07-13T04:50:28;5.40;;;1.27;;
75854;SDS011;64502;59.976;30.316;2023-07-13T04:52:53;2.53;;;0.85;;
75854;SDS011;64502;59.976;30.316;2023-07-13T04:55:19;2.60;;;1.23;;
75854;SDS011;64502;59.976;30.316;2023-07-13T04:57:45;4.32;;;1.73;;
75854;SDS011;64502;59.976;30.316;2023-07-13T05:00:12;2.67;;;1.00;;
75854;SDS011;64502;59.976;30.316;2023-07-13T05:02:39;2.97;;;1.75;;
75854;SDS011;64502;59.976;30.316;2023-07-13T05:05:05;6.63;;;1.48;;
75854;SDS011;64502;59.976;30.316;2023-07-13T05:07:31;3.33;;;1.42;;
75854;SDS011;64502;59.976;30.316;2023-07-13T05:09:58;1.77;;;1.20;;
75854;SDS011;64502;59.976;30.316;2023-07-13T05:12:24;4.47;;;1.40;;
75854;SDS011;64502;59.976;30.316;2023-07-13T05:14:50;6.50;;;0.90;;
75854;SDS011;64502;59.976;30.316;2023-07-13T05:17:16;5.88;;;1.50;;
75854;SDS011;64502;59.976;30.316;2023-07-13T05:19:41;4.50;;;1.20;;
75854;SDS011;64502;59.976;30.316;2023-07-13T05:22:06;3.40;;;1.30;;
75854;SDS011;64502;59.976;30.316;2023-07-13T05:24:33;5.60;;;1.48;;
75854;SDS011;64502;59.976;30.316;2023-07-13T05:26:58;3.75;;;1.27;;
75854;SDS011;64502;59.976;30.316;2023-07-13T05:29:24;2.22;;;1.15;;
75854;SDS011;64502;59.976;30.316;2023-07-13T05:31:49;1.98;;;0.80;;
75854;SDS011;64502;59.976;30.316;2023-07-13T05:34:15;2.47;;;1.30;;
75854;SDS011;64502;59.976;30.316;2023-07-13T05:36:41;3.25;;;1.38;;
75854;SDS011;64502;59.976;30.316;2023-07-13T05:39:09;2.53;;;1.27;;
75854;SDS011;64502;59.976;30.316;2023-07-13T05:41:35;3.78;;;1.27;;
75854;SDS011;64502;59.976;30.316;2023-07-13T05:44:00;3.05;;;1.15;;
75854;SDS011;64502;59.976;30.316;2023-07-13T05:46:26;2.15;;;1.20;;
75854;SDS011;64502;59.976;30.316;2023-07-13T05:48:51;2.40;;;1.15;;
75854;SDS011;64502;59.976;30.316;2023-07-13T05:51:17;3.70;;;1.23;;
75854;SDS011;64502;59.976;30.316;2023-07-13T05:53:42;2.72;;;0.73;;
75854;SDS011;64502;59.976;30.316;2023-07-13T05:56:07;2.65;;;0.77;;
75854;SDS011;64502;59.976;30.316;2023-07-13T05:58:33;1.95;;;1.10;;
75854;SDS011;64502;59.976;30.316;2023-07-13T06:01:06;3.60;;;1.10;;
75854;SDS011;64502;59.976;30.316;2023-07-13T06:06:00;3.70;;;1.25;;
75854;SDS011;64502;59.976;30.316;2023-07-13T06:08:26;2.30;;;1.00;;
75854;SDS011;64502;59.976;30.316;2023-07-13T06:10:52;3.65;;;1.48;;
75854;SDS011;64502;59.976;30.316;2023-07-13T06:13:18;4.13;;;1.20;;
75854;SDS011;64502;59.976;30.316;2023-07-13T06:15:47;2.53;;;1.40;;
75854;SDS011;64502;59.976;30.316;2023-07-13T06:18:14;4.25;;;1.30;;
75854;SDS011;64502;59.976;30.316;2023-07-13T06:20:39;3.38;;;0.90;;
75854;SDS011;64502;59.976;30.316;2023-07-13T06:23:05;2.22;;;1.25;;
75854;SDS011;64502;59.976;30.316;2023-07-13T06:25:30;3.97;;;1.35;;
75854;SDS011;64502;59.976;30.316;2023-07-13T06:27:56;1.63;;;0.93;;
75854;SDS011;64502;59.976;30.316;2023-07-13T06:30:21;3.03;;;1.27;;
75854;SDS011;64502;59.976;30.316;2023-07-13T06:32:46;2.30;;;1.30;;
75854;SDS011;64502;59.976;30.316;2023-07-13T06:35:12;3.17;;;1.37;;
75854;SDS011;64502;59.976;30.316;2023-07-13T06:37:38;3.42;;;1.98;;
75854;SDS011;64502;59.976;30.316;2023-07-13T06:40:04;5.50;;;1.20;;
75854;SDS011;64502;59.976;30.316;2023-07-13T06:42:30;2.67;;;1.10;;
75854;SDS011;64502;59.976;30.316;2023-07-13T06:44:55;5.30;;;0.70;;
75854;SDS011;64502;59.976;30.316;2023-07-13T06:47:21;2.90;;;0.60;;
75854;SDS011;64502;59.976;30.316;2023-07-13T06:49:46;3.40;;;1.10;;
75854;SDS011;64502;59.976;30.316;2023-07-13T06:52:11;2.00;;;0.95;;
75854;SDS011;64502;59.976;30.316;2023-07-13T06:54:37;4.93;;;1.33;;
75854;SDS011;64502;59.976;30.316;2023-07-13T06:57:02;2.92;;;1.27;;
75854;SDS011;64502;59.976;30.316;2023-07-13T06:59:28;4.90;;;1.45;;
75854;SDS011;64502;59.976;30.316;2023-07-13T07:01:53;4.45;;;1.63;;
75854;SDS011;64502;59.976;30.316;2023-07-13T07:04:19;3.90;;;1.67;;
75854;SDS011;64502;59.976;30.316;2023-07-13T07:06:44;2.72;;;1.65;;
75854;SDS011;64502;59.976;30.316;2023-07-13T07:09:10;5.20;;;1.42;;
75854;SDS011;64502;59.976;30.316;2023-07-13T07:11:36;5.18;;;2.00;;
75854;SDS011;64502;59.976;30.316;2023-07-13T07:14:01;4.15;;;1.88;;
75854;SDS011;64502;59.976;30.316;2023-07-13T07:16:27;2.80;;;1.75;;
75854;SDS011;64502;59.976;30.316;2023-07-13T07:18:52;4.25;;;1.80;;
75854;SDS011;64502;59.976;30.316;2023-07-13T07:21:17;3.63;;;1.80;;
75854;SDS011;64502;59.976;30.316;2023-07-13T07:23:45;3.42;;;1.30;;
75854;SDS011;64502;59.976;30.316;2023-07-13T07:26:11;4.88;;;2.20;;
75854;SDS011;64502;59.976;30.316;2023-07-13T07:28:36;3.88;;;2.08;;
75854;SDS011;64502;59.976;30.316;2023-07-13T07:31:02;8.40;;;2.55;;
75854;SDS011;64502;59.976;30.316;2023-07-13T07:33:27;4.82;;;2.17;;
75854;SDS011;64502;59.976;30.316;2023-07-13T07:35:53;3.67;;;1.88;;
75854;SDS011;64502;59.976;30.316;2023-07-13T07:38:18;7.00;;;2.47;;
75854;SDS011;64502;59.976;30.316;2023-07-13T07:40:44;4.78;;;2.47;;
75854;SDS011;64502;59.976;30.316;2023-07-13T07:43:10;4.70;;;2.35;;
75854;SDS011;64502;59.976;30.316;2023-07-13T07:45:36;4.45;;;2.00;;
75854;SDS011;64502;59.976;30.316;2023-07-13T07:48:05;3.80;;;1.83;;
75854;SDS011;64502;59.976;30.316;2023-07-13T07:50:31;7.60;;;2.33;;
75854;SDS011;64502;59.976;30.316;2023-07-13T07:52:57;4.95;;;1.70;;
75854;SDS011;64502;59.976;30.316;2023-07-13T07:55:24;4.63;;;1.75;;
75854;SDS011;64502;59.976;30.316;2023-07-13T07:57:52;3.78;;;1.83;;
75854;SDS011;64502;59.976;30.316;2023-07-13T08:00:18;3.55;;;1.80;;
75854;SDS011;64502;59.976;30.316;2023-07-13T08:02:45;2.78;;;1.98;;
75854;SDS011;64502;59.976;30.316;2023-07-13T08:05:11;4.22;;;1.95;;
75854;SDS011;64502;59.976;30.316;2023-07-13T08:07:37;3.83;;;1.83;;
75854;SDS011;64502;59.976;30.316;2023-07-13T08:10:04;4.07;;;1.73;;
75854;SDS011;64502;59.976;30.316;2023-07-13T08:12:37;5.65;;;1.80;;
75854;SDS011;64502;59.976;30.316;2023-07-13T08:15:03;4.35;;;1.73;;
75854;SDS011;64502;59.976;30.316;2023-07-13T08:17:31;2.75;;;1.63;;
75854;SDS011;64502;59.976;30.316;2023-07-13T08:19:56;5.75;;;1.63;;
75854;SDS011;64502;59.976;30.316;2023-07-13T08:22:22;3.47;;;2.13;;
75854;SDS011;64502;59.976;30.316;2023-07-13T08:24:47;3.83;;;1.67;;
75854;SDS011;64502;59.976;30.316;2023-07-13T08:27:20;3.65;;;2.05;;
75854;SDS011;64502;59.976;30.316;2023-07-13T08:29:47;3.97;;;1.70;;
75854;SDS011;64502;59.976;30.316;2023-07-13T08:32:12;3.10;;;1.60;;
75854;SDS011;64502;59.976;30.316;2023-07-13T08:34:38;2.80;;;1.70;;
75854;SDS011;64502;59.976;30.316;2023-07-13T08:37:04;4.50;;;1.50;;
75854;SDS011;64502;59.976;30.316;2023-07-13T08:39:30;5.03;;;2.10;;
75854;SDS011;64502;59.976;30.316;2023-07-13T08:41:58;3.95;;;2.15;;
75854;SDS011;64502;59.976;30.316;2023-07-13T08:44:33;3.88;;;1.70;;
75854;SDS011;64502;59.976;30.316;2023-07-13T08:47:03;2.58;;;1.42;;
75854;SDS011;64502;59.976;30.316;2023-07-13T08:49:30;3.70;;;1.35;;
75854;SDS011;64502;59.976;30.316;2023-07-13T08:52:04;2.30;;;1.50;;
75854;SDS011;64502;59.976;30.316;2023-07-13T08:54:39;10.38;;;2.40;;
75854;SDS011;64502;59.976;30.316;2023-07-13T08:57:16;2.72;;;1.55;;
75854;SDS011;64502;59.976;30.316;2023-07-13T08:59:44;3.15;;;1.33;;
75854;SDS011;64502;59.976;30.316;2023-07-13T09:04:49;3.85;;;1.30;;
75854;SDS011;64502;59.976;30.316;2023-07-13T09:15:56;4.63;;;1.90;;
75854;SDS011;64502;59.976;30.316;2023-07-13T09:18:35;3.17;;;1.83;;
75854;SDS011;64502;59.976;30.316;2023-07-13T09:21:04;2.85;;;1.73;;
75854;SDS011;64502;59.976;30.316;2023-07-13T09:23:35;2.92;;;1.45;;
75854;SDS011;64502;59.976;30.316;2023-07-13T09:28:41;2.50;;;1.70;;
75854;SDS011;64502;59.976;30.316;2023-07-13T09:31:10;4.45;;;2.13;;
75854;SDS011;64502;59.976;30.316;2023-07-13T09:33:39;3.25;;;1.90;;
75854;SDS011;64502;59.976;30.316;2023-07-13T09:36:16;4.68;;;2.35;;
75854;SDS011;64502;59.976;30.316;2023-07-13T09:38:45;5.05;;;2.08;;
75854;SDS011;64502;59.976;30.316;2023-07-13T09:41:26;5.03;;;2.10;;
75854;SDS011;64502;59.976;30.316;2023-07-13T09:46:26;5.85;;;2.10;;
75854;SDS011;64502;59.976;30.316;2023-07-13T09:48:52;6.47;;;2.10;;
75854;SDS011;64502;59.976;30.316;2023-07-13T09:51:17;3.58;;;2.00;;
75854;SDS011;64502;59.976;30.316;2023-07-13T09:53:43;2.95;;;1.92;;
75854;SDS011;64502;59.976;30.316;2023-07-13T09:56:18;4.13;;;1.50;;
75854;SDS011;64502;59.976;30.316;2023-07-13T09:58:48;5.70;;;1.73;;
75854;SDS011;64502;59.976;30.316;2023-07-13T10:01:14;3.47;;;1.90;;
75854;SDS011;64502;59.976;30.316;2023-07-13T10:03:42;3.50;;;2.03;;
75854;SDS011;64502;59.976;30.316;2023-07-13T10:06:19;3.90;;;1.95;;
75854;SDS011;64502;59.976;30.316;2023-07-13T10:08:51;4.63;;;2.03;;
75854;SDS011;64502;59.976;30.316;2023-07-13T10:13:44;5.47;;;1.90;;
75854;SDS011;64502;59.976;30.316;2023-07-13T10:16:20;4.05;;;1.73;;
75854;SDS011;64502;59.976;30.316;2023-07-13T10:18:48;4.00;;;1.70;;
75854;SDS011;64502;59.976;30.316;2023-07-13T10:21:18;3.13;;;1.88;;
75854;SDS011;64502;59.976;30.316;2023-07-13T10:23:50;2.88;;;1.02;;
75854;SDS011;64502;59.976;30.316;2023-07-13T10:26:27;3.38;;;1.88;;
75854;SDS011;64502;59.976;30.316;2023-07-13T10:28:57;5.97;;;2.08;;
75854;SDS011;64502;59.976;30.316;2023-07-13T10:31:26;2.08;;;1.58;;
75854;SDS011;64502;59.976;30.316;2023-07-13T10:33:52;4.13;;;1.30;;
75854;SDS011;64502;59.976;30.316;2023-07-13T10:38:55;2.25;;;1.35;;
75854;SDS011;64502;59.976;30.316;2023-07-13T10:41:24;3.45;;;1.90;;
75854;SDS011;64502;59.976;30.316;2023-07-13T10:43:53;5.47;;;1.70;;
75854;SDS011;64502;59.976;30.316;2023-07-13T10:46:21;6.63;;;2.13;;
75854;SDS011;64502;59.976;30.316;2023-07-13T10:48:50;3.85;;;1.35;;
75854;SDS011;64502;59.976;30.316;2023-07-13T10:51:19;2.63;;;1.70;;
75854;SDS011;64502;59.976;30.316;2023-07-13T10:53:46;2.47;;;1.50;;
75854;SDS011;64502;59.976;30.316;2023-07-13T10:58:47;2.70;;;1.38;;
75854;SDS011;64502;59.976;30.316;2023-07-13T11:01:25;2.50;;;1.35;;
75854;SDS011;64502;59.976;30.316;2023-07-13T11:04:05;2.10;;;1.73;;
75854;SDS011;64502;59.976;30.316;2023-07-13T11:06:37;4.07;;;1.88;;
75854;SDS011;64502;59.976;30.316;2023-07-13T11:12:01;2.88;;;1.90;;
75854;SDS011;64502;59.976;30.316;2023-07-13T11:22:45;2.88;;;1.90;;
75854;SDS011;64502;59.976;30.316;2023-07-13T11:30:23;2.40;;;1.42;;
75854;SDS011;64502;59.976;30.316;2023-07-13T11:41:37;2.60;;;1.35;;
75854;SDS011;64502;59.976;30.316;2023-07-13T11:44:18;3.28;;;2.35;;
75854;SDS011;64502;59.976;30.316;2023-07-13T11:46:50;5.75;;;2.08;;
75854;SDS011;64502;59.976;30.316;2023-07-13T11:49:23;3.08;;;1.98;;
75854;SDS011;64502;59.976;30.316;2023-07-13T11:51:52;4.20;;;2.63;;
75854;SDS011;64502;59.976;30.316;2023-07-13T11:56:52;6.38;;;2.22;;
75854;SDS011;64502;59.976;30.316;2023-07-13T11:59:20;4.22;;;2.72;;
75854;SDS011;64502;59.976;30.316;2023-07-13T12:01:47;3.17;;;2.55;;
75854;SDS011;64502;59.976;30.316;2023-07-13T12:04:24;5.43;;;2.58;;
75854;SDS011;64502;59.976;30.316;2023-07-13T12:06:55;3.95;;;2.45;;
75854;SDS011;64502;59.976;30.316;2023-07-13T12:09:25;5.35;;;2.80;;
75854;SDS011;64502;59.976;30.316;2023-07-13T12:11:52;4.53;;;2.63;;
75854;SDS011;64502;59.976;30.316;2023-07-13T12:14:18;3.92;;;2.47;;
75854;SDS011;64502;59.976;30.316;2023-07-13T12:16:45;4.30;;;2.88;;
75854;SDS011;64502;59.976;30.316;2023-07-13T12:19:19;5.28;;;3.03;;
75854;SDS011;64502;59.976;30.316;2023-07-13T12:21:53;4.30;;;3.22;;
75854;SDS011;64502;59.976;30.316;2023-07-13T12:24:21;3.88;;;2.55;;
75854;SDS011;64502;59.976;30.316;2023-07-13T12:26:54;4.57;;;2.65;;
75854;SDS011;64502;59.976;30.316;2023-07-13T12:29:26;6.88;;;1.90;;
75854;SDS011;64502;59.976;30.316;2023-07-13T12:31:52;4.55;;;2.40;;
75854;SDS011;64502;59.976;30.316;2023-07-13T12:34:20;4.65;;;2.60;;
75854;SDS011;64502;59.976;30.316;2023-07-13T12:39:16;5.00;;;3.45;;
75854;SDS011;64502;59.976;30.316;2023-07-13T12:41:48;4.80;;;2.28;;
75854;SDS011;64502;59.976;30.316;2023-07-13T12:44:16;6.50;;;2.88;;
75854;SDS011;64502;59.976;30.316;2023-07-13T12:46:55;4.10;;;2.60;;
75854;SDS011;64502;59.976;30.316;2023-07-13T12:49:23;4.15;;;2.90;;
75854;SDS011;64502;59.976;30.316;2023-07-13T12:51:55;6.93;;;2.67;;
75854;SDS011;64502;59.976;30.316;2023-07-13T12:54:22;5.45;;;3.25;;
75854;SDS011;64502;59.976;30.316;2023-07-13T12:56:49;4.65;;;2.80;;
75854;SDS011;64502;59.976;30.316;2023-07-13T12:59:18;4.70;;;2.83;;
75854;SDS011;64502;59.976;30.316;2023-07-13T13:01:48;7.63;;;3.00;;
75854;SDS011;64502;59.976;30.316;2023-07-13T13:04:15;3.28;;;2.50;;
75854;SDS011;64502;59.976;30.316;2023-07-13T13:06:41;4.35;;;2.63;;
75854;SDS011;64502;59.976;30.316;2023-07-13T13:09:12;3.80;;;2.53;;
75854;SDS011;64502;59.976;30.316;2023-07-13T13:11:39;3.65;;;2.60;;
75854;SDS011;64502;59.976;30.316;2023-07-13T13:14:05;5.90;;;3.35;;
75854;SDS011;64502;59.976;30.316;2023-07-13T13:16:33;2.90;;;2.45;;
75854;SDS011;64502;59.976;30.316;2023-07-13T13:19:05;4.47;;;2.60;;
75854;SDS011;64502;59.976;30.316;2023-07-13T13:21:42;6.38;;;2.67;;
75854;SDS011;64502;59.976;30.316;2023-07-13T13:24:11;5.30;;;2.50;;
75854;SDS011;64502;59.976;30.316;2023-07-13T13:26:41;3.75;;;2.47;;
75854;SDS011;64502;59.976;30.316;2023-07-13T13:29:26;3.50;;;2.55;;
75854;SDS011;64502;59.976;30.316;2023-07-13T13:31:52;3.60;;;2.40;;
75854;SDS011;64502;59.976;30.316;2023-07-13T13:34:19;4.00;;;2.00;;
75854;SDS011;64502;59.976;30.316;2023-07-13T13:36:47;4.80;;;1.95;;
75854;SDS011;64502;59.976;30.316;2023-07-13T13:41:48;3.35;;;1.75;;
75854;SDS011;64502;59.976;30.316;2023-07-13T13:44:17;3.47;;;2.67;;
75854;SDS011;64502;59.976;30.316;2023-07-13T13:46:50;2.58;;;1.73;;
75854;SDS011;64502;59.976;30.316;2023-07-13T13:49:21;2.95;;;2.65;;
75854;SDS011;64502;59.976;30.316;2023-07-13T13:51:48;3.25;;;2.58;;
75854;SDS011;64502;59.976;30.316;2023-07-13T13:54:15;2.97;;;2.03;;
75854;SDS011;64502;59.976;30.316;2023-07-13T13:56:43;3.22;;;2.85;;
75854;SDS011;64502;59.976;30.316;2023-07-13T13:59:10;3.30;;;1.98;;
75854;SDS011;64502;59.976;30.316;2023-07-13T14:01:36;3.83;;;2.72;;
75854;SDS011;64502;59.976;30.316;2023-07-13T14:04:02;3.33;;;1.88;;
75854;SDS011;64502;59.976;30.316;2023-07-13T14:06:28;3.42;;;3.00;;
75854;SDS011;64502;59.976;30.316;2023-07-13T14:08:54;3.85;;;2.42;;
75854;SDS011;64502;59.976;30.316;2023-07-13T14:11:22;3.55;;;2.35;;
75854;SDS011;64502;59.976;30.316;2023-07-13T14:13:52;3.75;;;2.17;;
75854;SDS011;64502;59.976;30.316;2023-07-13T14:16:21;2.97;;;2.40;;
75854;SDS011;64502;59.976;30.316;2023-07-13T14:18:47;3.75;;;2.28;;
75854;SDS011;64502;59.976;30.316;2023-07-13T14:21:18;3.28;;;1.80;;
75854;SDS011;64502;59.976;30.316;2023-07-13T14:23:45;3.10;;;2.58;;
75854;SDS011;64502;59.976;30.316;2023-07-13T14:26:16;3.38;;;2.13;;
75854;SDS011;64502;59.976;30.316;2023-07-13T14:28:48;4.43;;;2.22;;
75854;SDS011;64502;59.976;30.316;2023-07-13T14:31:15;7.57;;;2.80;;
75854;SDS011;64502;59.976;30.316;2023-07-13T14:33:42;3.25;;;2.58;;
75854;SDS011;64502;59.976;30.316;2023-07-13T14:38:57;3.40;;;2.60;;
75854;SDS011;64502;59.976;30.316;2023-07-13T14:41:24;3.40;;;2.40;;
75854;SDS011;64502;59.976;30.316;2023-07-13T14:43:50;4.80;;;2.30;;
75854;SDS011;64502;59.976;30.316;2023-07-13T14:46:37;5.57;;;2.20;;
75854;SDS011;64502;59.976;30.316;2023-07-13T14:49:07;5.20;;;2.70;;
75854;SDS011;64502;59.976;30.316;2023-07-13T14:51:37;3.58;;;2.08;;
75854;SDS011;64502;59.976;30.316;2023-07-13T14:54:04;3.70;;;2.08;;
75854;SDS011;64502;59.976;30.316;2023-07-13T14:56:31;5.07;;;2.50;;
75854;SDS011;64502;59.976;30.316;2023-07-13T14:58:57;3.53;;;2.72;;
75854;SDS011;64502;59.976;30.316;2023-07-13T15:01:22;3.58;;;2.58;;
75854;SDS011;64502;59.976;30.316;2023-07-13T15:03:51;3.40;;;2.08;;
75854;SDS011;64502;59.976;30.316;2023-07-13T15:06:17;3.67;;;2.42;;
75854;SDS011;64502;59.976;30.316;2023-07-13T15:08:44;3.78;;;2.33;;
75854;SDS011;64502;59.976;30.316;2023-07-13T15:11:10;5.38;;;2.55;;
75854;SDS011;64502;59.976;30.316;2023-07-13T15:13:37;3.95;;;2.60;;
75854;SDS011;64502;59.976;30.316;2023-07-13T15:16:04;2.55;;;1.88;;
75854;SDS011;64502;59.976;30.316;2023-07-13T15:18:35;2.50;;;1.90;;
75854;SDS011;64502;59.976;30.316;2023-07-13T15:21:03;5.13;;;1.58;;
75854;SDS011;64502;59.976;30.316;2023-07-13T15:23:29;2.63;;;2.13;;
75854;SDS011;64502;59.976;30.316;2023-07-13T15:25:54;2.70;;;1.77;;
75854;SDS011;64502;59.976;30.316;2023-07-13T15:28:20;9.13;;;2.65;;
75854;SDS011;64502;59.976;30.316;2023-07-13T15:30:48;5.05;;;2.22;;
75854;SDS011;64502;59.976;30.316;2023-07-13T15:35:47;3.10;;;1.92;;
75854;SDS011;64502;59.976;30.316;2023-07-13T15:40:47;3.15;;;1.95;;
75854;SDS011;64502;59.976;30.316;2023-07-13T15:43:13;3.42;;;2.00;;
75854;SDS011;64502;59.976;30.316;2023-07-13T15:45:41;3.60;;;2.60;;
75854;SDS011;64502;59.976;30.316;2023-07-13T15:48:32;2.53;;;1.90;;
75854;SDS011;64502;59.976;30.316;2023-07-13T15:50:59;3.45;;;2.40;;
75854;SDS011;64502;59.976;30.316;2023-07-13T15:53:31;2.25;;;2.03;;
75854;SDS011;64502;59.976;30.316;2023-07-13T15:55:59;2.40;;;2.15;;
75854;SDS011;64502;59.976;30.316;2023-07-13T15:58:27;3.47;;;1.80;;
75854;SDS011;64502;59.976;30.316;2023-07-13T16:00:53;3.63;;;2.85;;
75854;SDS011;64502;59.976;30.316;2023-07-13T16:03:19;3.88;;;1.60;;
75854;SDS011;64502;59.976;30.316;2023-07-13T16:05:46;5.97;;;3.30;;
75854;SDS011;64502;59.976;30.316;2023-07-13T16:08:46;3.00;;;1.90;;
75854;SDS011;64502;59.976;30.316;2023-07-13T16:11:05;2.50;;;1.85;;
75854;SDS011;64502;59.976;30.316;2023-07-13T16:13:45;2.60;;;1.60;;
75854;SDS011;64502;59.976;30.316;2023-07-13T16:16:11;2.83;;;2.22;;
75854;SDS011;64502;59.976;30.316;2023-07-13T16:18:41;4.20;;;2.15;;
75854;SDS011;64502;59.976;30.316;2023-07-13T16:21:16;2.92;;;2.40;;
75854;SDS011;64502;59.976;30.316;2023-07-13T16:23:42;2.83;;;1.92;;
75854;SDS011;64502;59.976;30.316;2023-07-13T16:26:16;2.75;;;1.60;;
75854;SDS011;64502;59.976;30.316;2023-07-13T16:29:17;2.08;;;1.70;;
75854;SDS011;64502;59.976;30.316;2023-07-13T16:34:34;4.63;;;2.25;;
75854;SDS011;64502;59.976;30.316;2023-07-13T16:37:02;2.83;;;1.73;;
75854;SDS011;64502;59.976;30.316;2023-07-13T16:39:30;3.10;;;1.60;;
75854;SDS011;64502;59.976;30.316;2023-07-13T16:41:56;3.88;;;2.63;;
75854;SDS011;64502;59.976;30.316;2023-07-13T16:44:23;3.03;;;1.40;;
75854;SDS011;64502;59.976;30.316;2023-07-13T16:46:50;2.30;;;2.00;;
75854;SDS011;64502;59.976;30.316;2023-07-13T16:49:37;2.50;;;2.20;;
75854;SDS011;64502;59.976;30.316;2023-07-13T16:52:05;3.13;;;2.10;;
75854;SDS011;64502;59.976;30.316;2023-07-13T16:54:35;2.75;;;1.80;;
75854;SDS011;64502;59.976;30.316;2023-07-13T16:57:09;2.10;;;1.90;;
75854;SDS011;64502;59.976;30.316;2023-07-13T16:59:39;1.92;;;1.45;;
75854;SDS011;64502;59.976;30.316;2023-07-13T17:02:18;2.38;;;2.17;;
75854;SDS011;64502;59.976;30.316;2023-07-13T17:05:00;2.75;;;1.70;;
75854;SDS011;64502;59.976;30.316;2023-07-13T17:07:26;2.92;;;2.17;;
75854;SDS011;64502;59.976;30.316;2023-07-13T17:09:53;3.72;;;2.47;;
75854;SDS011;64502;59.976;30.316;2023-07-13T17:12:19;5.55;;;2.88;;
75854;SDS011;64502;59.976;30.316;2023-07-13T17:14:45;8.55;;;2.53;;
75854;SDS011;64502;59.976;30.316;2023-07-13T17:17:20;6.35;;;2.38;;
75854;SDS011;64502;59.976;30.316;2023-07-13T17:20:02;5.85;;;2.70;;
75854;SDS011;64502;59.976;30.316;2023-07-13T17:22:28;7.88;;;2.85;;
75854;SDS011;64502;59.976;30.316;2023-07-13T17:24:53;6.93;;;2.75;;
75854;SDS011;64502;59.976;30.316;2023-07-13T17:27:19;6.25;;;3.20;;
75854;SDS011;64502;59.976;30.316;2023-07-13T17:29:45;7.95;;;2.85;;
75854;SDS011;64502;59.976;30.316;2023-07-13T17:32:15;5.93;;;2.70;;
75854;SDS011;64502;59.976;30.316;2023-07-13T17:34:42;5.18;;;2.63;;
75854;SDS011;64502;59.976;30.316;2023-07-13T17:37:14;6.70;;;2.97;;
75854;SDS011;64502;59.976;30.316;2023-07-13T17:39:43;7.32;;;3.28;;
75854;SDS011;64502;59.976;30.316;2023-07-13T17:42:12;7.00;;;3.08;;
75854;SDS011;64502;59.976;30.316;2023-07-13T17:44:38;5.82;;;2.55;;
75854;SDS011;64502;59.976;30.316;2023-07-13T17:47:05;4.70;;;2.67;;
75854;SDS011;64502;59.976;30.316;2023-07-13T17:49:47;6.75;;;3.03;;
75854;SDS011;64502;59.976;30.316;2023-07-13T17:52:13;6.10;;;2.97;;
75854;SDS011;64502;59.976;30.316;2023-07-13T17:54:38;9.57;;;4.35;;
75854;SDS011;64502;59.976;30.316;2023-07-13T17:57:04;11.00;;;3.50;;
75854;SDS011;64502;59.976;30.316;2023-07-13T17:59:30;12.77;;;4.57;;
75854;SDS011;64502;59.976;30.316;2023-07-13T18:01:56;12.98;;;5.03;;
75854;SDS011;64502;59.976;30.316;2023-07-13T18:04:22;14.23;;;3.85;;
75854;SDS011;64502;59.976;30.316;2023-07-13T18:06:50;11.23;;;3.83;;
75854;SDS011;64502;59.976;30.316;2023-07-13T18:09:22;10.32;;;2.92;;
75854;SDS011;64502;59.976;30.316;2023-07-13T18:11:51;8.60;;;2.72;;
75854;SDS011;64502;59.976;30.316;2023-07-13T18:14:17;6.20;;;2.63;;